Time;durP1;ratioP1;P1;durP2;ratioP2;P2;SDS_P1;SDS_P2;PMS_P1;PMS_P2;Temp;Humidity;BMP_temperature;BMP_pressure;BME280_temperature;BME280_humidity;BME280_pressure;Samples;Min_cycle;Max_cycle;Signal;HPM_P1;HPM_P2
2022/01/01 00:00:27;;;;;;;41.43;37.00;;;;;;;;;;5051270;28;20477;-77
2022/01/01 00:02:54;;;;;;;47.67;42.47;;;;;;;;;;5042019;28;20432;-77
2022/01/01 00:05:21;;;;;;;51.83;46.23;;;;;;;;;;5031555;28;20455;-76
2022/01/01 00:07:48;;;;;;;51.40;45.83;;;;;;;;;;5031533;28;20760;-77
2022/01/01 00:10:16;;;;;;;55.13;49.07;;;;;;;;;;5031378;28;20439;-76
2022/01/01 00:12:46;;;;;;;72.33;57.60;;;;;;;;;;5030706;28;20954;-76
2022/01/01 00:15:13;;;;;;;37.13;33.23;;;;;;;;;;5030729;28;20544;-75
2022/01/01 00:17:41;;;;;;;51.87;43.73;;;;;;;;;;5030984;28;20440;-76
2022/01/01 00:20:09;;;;;;;53.03;47.47;;;;;;;;;;5030851;28;20994;-77
2022/01/01 00:22:36;;;;;;;48.13;42.77;;;;;;;;;;5030573;28;20478;-76
2022/01/01 00:25:04;;;;;;;42.10;37.53;;;;;;;;;;5031092;28;20530;-76
2022/01/01 00:27:31;;;;;;;49.65;44.45;;;;;;;;;;5030808;28;20463;-76
2022/01/01 00:29:58;;;;;;;47.93;42.73;;;;;;;;;;5030846;28;20262;-76
2022/01/01 00:32:25;;;;;;;46.43;41.00;;;;;;;;;;5030906;28;20450;-76
2022/01/01 00:34:53;;;;;;;46.57;39.73;;;;;;;;;;5030954;28;20451;-75
2022/01/01 00:37:20;;;;;;;47.40;42.20;;;;;;;;;;5030851;28;20584;-76
2022/01/01 00:39:47;;;;;;;49.23;43.83;;;;;;;;;;5030798;28;20444;-76
2022/01/01 00:42:14;;;;;;;48.87;43.50;;;;;;;;;;5030604;28;20486;-76
2022/01/01 00:44:41;;;;;;;48.10;42.83;;;;;;;;;;5030927;28;20447;-76
2022/01/01 00:47:08;;;;;;;49.93;42.20;;;;;;;;;;5030569;28;20495;-76
2022/01/01 00:49:35;;;;;;;46.67;40.80;;;;;;;;;;5030737;28;20451;-76
2022/01/01 00:52:04;;;;;;;39.10;34.83;;;;;;;;;;5030754;28;20440;-76
2022/01/01 00:54:31;;;;;;;42.33;36.93;;;;;;;;;;5031705;28;20495;-76
2022/01/01 00:56:58;;;;;;;34.47;30.70;;;;;;;;;;5034531;28;20474;-77
2022/01/01 00:59:27;;;;;;;32.10;28.70;;;;;;;;;;5034477;28;20449;-76
2022/01/01 01:01:54;;;;;;;31.73;28.23;;;;;;;;;;5034916;28;20491;-76
2022/01/01 01:04:21;;;;;;;30.93;27.67;;;;;;;;;;5054211;28;20469;-77
2022/01/01 01:06:48;;;;;;;28.73;25.60;;;;;;;;;;5054309;28;20544;-76
2022/01/01 01:09:16;;;;;;;29.37;26.23;;;;;;;;;;5054643;28;20830;-78
2022/01/01 01:11:46;;;;;;;23.83;21.23;;;;;;;;;;5053938;28;20442;-76
2022/01/01 01:14:20;;;;;;;23.67;21.27;;;;;;;;;;5054459;28;20452;-76
2022/01/01 01:16:47;;;;;;;18.67;16.07;;;;;;;;;;5055017;28;20962;-76
2022/01/01 01:19:14;;;;;;;17.00;15.20;;;;;;;;;;5054435;28;20450;-76
2022/01/01 01:21:43;;;;;;;16.50;14.87;;;;;;;;;;5053808;28;20478;-76
2022/01/01 01:24:10;;;;;;;16.03;14.30;;;;;;;;;;5055936;28;20454;-76
2022/01/01 01:26:39;;;;;;;16.70;13.70;;;;;;;;;;5055312;28;20523;-76
2022/01/01 01:29:06;;;;;;;20.00;16.80;;;;;;;;;;5054859;28;20855;-76
2022/01/01 01:31:33;;;;;;;26.53;23.77;;;;;;;;;;5053705;28;20466;-77
2022/01/01 01:34:01;;;;;;;28.33;25.03;;;;;;;;;;5053546;28;20451;-77
2022/01/01 01:36:28;;;;;;;31.60;28.20;;;;;;;;;;5053865;28;20555;-76
2022/01/01 01:38:55;;;;;;;30.27;27.10;;;;;;;;;;5055992;28;20439;-76
2022/01/01 01:41:23;;;;;;;30.27;27.00;;;;;;;;;;5055414;28;20479;-76
2022/01/01 01:43:54;;;;;;;34.37;30.77;;;;;;;;;;5054482;28;20489;-76
2022/01/01 01:46:21;;;;;;;37.03;33.10;;;;;;;;;;5054894;28;20518;-76
2022/01/01 01:48:48;;;;;;;39.80;34.53;;;;;;;;;;5054360;28;20980;-75
2022/01/01 01:51:15;;;;;;;48.57;40.50;;;;;;;;;;5054497;28;20930;-76
2022/01/01 01:53:43;;;;;;;48.83;41.50;;;;;;;;;;5054636;28;20446;-76
2022/01/01 01:56:10;;;;;;;40.90;36.50;;;;;;;;;;5044646;28;20476;-76
2022/01/01 01:58:37;;;;;;;39.93;35.47;;;;;;;;;;5033508;28;20443;-76
2022/01/01 02:01:23;;;;;;;40.97;36.60;;;;;;;;;;5048772;28;20532;-76
2022/01/01 02:03:50;;;;;;;41.70;37.30;;;;;;;;;;5032951;28;20499;-77
2022/01/01 02:06:18;;;;;;;42.10;37.00;;;;;;;;;;5033089;28;20827;-77
2022/01/01 02:08:49;;;;;;;40.80;36.23;;;;;;;;;;5033692;28;20526;-75
2022/01/01 02:11:17;;;;;;;39.37;34.43;;;;;;;;;;5033758;28;20493;-76
2022/01/01 02:14:01;;;;;;;41.70;33.50;;;;;;;;;;5032635;28;20443;-76
2022/01/01 02:16:38;;;;;;;40.83;35.20;;;;;;;;;;5033510;28;20511;-76
2022/01/01 02:19:05;;;;;;;40.67;36.37;;;;;;;;;;5033180;28;20453;-77
2022/01/01 02:21:33;;;;;;;47.97;42.47;;;;;;;;;;5039457;28;20472;-76
2022/01/01 02:24:00;;;;;;;53.80;47.27;;;;;;;;;;5051621;28;20934;-76
2022/01/01 02:26:35;;;;;;;48.87;43.57;;;;;;;;;;5052420;28;20467;-77
2022/01/01 02:29:03;;;;;;;45.77;39.47;;;;;;;;;;5052697;28;20446;-76
2022/01/01 02:31:32;;;;;;;47.80;41.43;;;;;;;;;;5052844;28;20452;-76
2022/01/01 02:34:03;;;;;;;48.60;43.50;;;;;;;;;;5052054;28;20576;-77
2022/01/01 02:36:32;;;;;;;50.97;39.80;;;;;;;;;;5052431;28;20464;-76
2022/01/01 02:39:00;;;;;;;44.03;39.27;;;;;;;;;;5052529;28;20451;-78
2022/01/01 02:41:27;;;;;;;44.90;38.37;;;;;;;;;;5052428;28;20479;-77
2022/01/01 02:43:55;;;;;;;43.33;36.37;;;;;;;;;;5051954;28;20524;-76
2022/01/01 02:46:22;;;;;;;42.70;38.20;;;;;;;;;;5051858;28;20485;-77
2022/01/01 02:48:49;;;;;;;35.37;31.63;;;;;;;;;;5052513;28;20430;-77
2022/01/01 02:51:16;;;;;;;34.43;29.37;;;;;;;;;;5052160;28;20439;-76
2022/01/01 02:53:43;;;;;;;31.00;25.93;;;;;;;;;;5052332;28;20434;-76
2022/01/01 02:56:12;;;;;;;27.20;24.30;;;;;;;;;;5052211;28;20461;-76
2022/01/01 02:58:39;;;;;;;26.47;23.70;;;;;;;;;;5052265;28;20439;-76
2022/01/01 03:01:06;;;;;;;24.67;21.97;;;;;;;;;;5051754;28;20473;-77
2022/01/01 03:03:33;;;;;;;20.97;18.67;;;;;;;;;;5052309;28;20507;-77
2022/01/01 03:06:00;;;;;;;20.23;18.13;;;;;;;;;;5052055;28;20980;-77
2022/01/01 03:08:27;;;;;;;21.50;18.90;;;;;;;;;;5052159;28;20442;-77
2022/01/01 03:10:54;;;;;;;21.83;18.30;;;;;;;;;;5051854;28;20813;-76
2022/01/01 03:13:22;;;;;;;22.03;19.63;;;;;;;;;;5051876;28;20435;-77
2022/01/01 03:15:49;;;;;;;22.90;19.90;;;;;;;;;;5052057;28;20509;-76
2022/01/01 03:18:16;;;;;;;28.20;24.70;;;;;;;;;;5051437;28;20597;-76
2022/01/01 03:20:44;;;;;;;29.67;26.57;;;;;;;;;;5051756;28;20974;-76
2022/01/01 03:23:11;;;;;;;30.57;27.10;;;;;;;;;;5051576;28;20478;-76
2022/01/01 03:25:38;;;;;;;28.70;24.60;;;;;;;;;;5051772;28;20516;-76
2022/01/01 03:28:05;;;;;;;29.23;25.90;;;;;;;;;;5051736;28;20455;-77
2022/01/01 03:30:34;;;;;;;34.60;27.50;;;;;;;;;;5051508;28;20810;-77
2022/01/01 03:33:01;;;;;;;38.33;32.80;;;;;;;;;;5051071;28;20438;-76
2022/01/01 03:35:28;;;;;;;38.67;33.30;;;;;;;;;;5050975;28;20982;-77
2022/01/01 03:37:55;;;;;;;43.07;34.57;;;;;;;;;;5051271;28;20451;-76
2022/01/01 03:40:22;;;;;;;37.77;33.70;;;;;;;;;;5051534;28;20447;-76
2022/01/01 03:42:49;;;;;;;37.37;32.97;;;;;;;;;;5051269;28;20470;-76
2022/01/01 03:45:16;;;;;;;44.43;38.77;;;;;;;;;;5051110;28;20505;-76
2022/01/01 03:47:44;;;;;;;49.80;41.90;;;;;;;;;;5051169;28;20455;-76
2022/01/01 03:50:12;;;;;;;46.53;41.47;;;;;;;;;;5051562;28;20472;-77
2022/01/01 03:52:42;;;;;;;47.53;42.27;;;;;;;;;;5051088;28;20447;-76
2022/01/01 03:55:09;;;;;;;48.63;43.30;;;;;;;;;;5051502;28;20538;-76
2022/01/01 03:57:36;;;;;;;54.40;45.63;;;;;;;;;;5051390;28;20807;-77
2022/01/01 04:00:05;;;;;;;51.50;45.33;;;;;;;;;;5051315;28;20519;-76
2022/01/01 04:02:33;;;;;;;45.20;39.93;;;;;;;;;;5050966;28;20482;-77
2022/01/01 04:05:01;;;;;;;46.60;41.60;;;;;;;;;;5051394;28;20443;-77
2022/01/01 04:07:28;;;;;;;47.57;42.60;;;;;;;;;;5051247;28;20492;-77
2022/01/01 04:09:55;;;;;;;47.30;42.07;;;;;;;;;;5051075;28;20499;-76
2022/01/01 04:12:22;;;;;;;47.43;39.20;;;;;;;;;;5051415;28;20501;-76
2022/01/01 04:14:49;;;;;;;48.53;39.03;;;;;;;;;;5050612;28;20497;-78
2022/01/01 04:17:17;;;;;;;45.60;40.77;;;;;;;;;;5051333;28;20469;-77
2022/01/01 04:19:44;;;;;;;52.13;46.43;;;;;;;;;;5051203;28;20432;-76
2022/01/01 04:22:13;;;;;;;52.67;45.60;;;;;;;;;;5051179;28;20480;-76
2022/01/01 04:24:40;;;;;;;54.47;46.87;;;;;;;;;;5051135;28;20858;-77
2022/01/01 04:27:08;;;;;;;53.20;46.00;;;;;;;;;;5051350;28;20465;-77
2022/01/01 04:29:36;;;;;;;55.20;46.87;;;;;;;;;;5052260;28;20929;-76
2022/01/01 04:32:03;;;;;;;52.40;45.93;;;;;;;;;;5055123;28;20989;-76
2022/01/01 04:34:30;;;;;;;54.63;46.40;;;;;;;;;;5054584;28;20953;-76
2022/01/01 04:37:01;;;;;;;53.37;46.20;;;;;;;;;;5055131;28;20457;-76
2022/01/01 04:39:30;;;;;;;55.00;45.90;;;;;;;;;;5054644;28;20910;-76
2022/01/01 04:41:57;;;;;;;52.77;44.50;;;;;;;;;;5054744;28;20485;-76
2022/01/01 04:44:24;;;;;;;59.73;47.87;;;;;;;;;;5054782;28;20496;-76
2022/01/01 04:46:51;;;;;;;48.67;43.30;;;;;;;;;;5054060;28;20483;-76
2022/01/01 04:49:18;;;;;;;53.78;43.75;;;;;;;;;;5045281;28;20572;-77
2022/01/01 04:51:45;;;;;;;52.37;43.70;;;;;;;;;;5035043;28;20251;-76
2022/01/01 04:54:15;;;;;;;49.90;40.73;;;;;;;;;;5034245;28;20443;-77
2022/01/01 04:56:45;;;;;;;49.63;42.13;;;;;;;;;;5034558;28;20566;-76
2022/01/01 04:59:13;;;;;;;46.97;41.93;;;;;;;;;;5034803;28;20439;-76
2022/01/01 05:01:40;;;;;;;49.20;42.73;;;;;;;;;;5034301;28;20474;-76
2022/01/01 05:04:07;;;;;;;46.30;41.13;;;;;;;;;;5034528;28;20451;-76
2022/01/01 05:06:34;;;;;;;49.50;42.30;;;;;;;;;;5034860;28;20468;-76
2022/01/01 05:09:01;;;;;;;45.90;40.93;;;;;;;;;;5034906;28;20452;-76
2022/01/01 05:11:28;;;;;;;44.63;39.70;;;;;;;;;;5045327;28;20857;-75
2022/01/01 05:13:57;;;;;;;41.83;35.57;;;;;;;;;;5061491;28;20434;-75
2022/01/01 05:16:24;;;;;;;39.90;34.93;;;;;;;;;;5060182;28;20448;-77
2022/01/01 05:18:51;;;;;;;40.50;34.60;;;;;;;;;;5035492;28;20447;-76
2022/01/01 05:21:18;;;;;;;35.73;30.20;;;;;;;;;;5035160;28;20494;-77
2022/01/01 05:23:45;;;;;;;37.77;33.67;;;;;;;;;;5035193;28;20506;-76
2022/01/01 05:26:12;;;;;;;38.43;30.43;;;;;;;;;;5035560;28;20475;-75
2022/01/01 05:28:39;;;;;;;26.17;23.37;;;;;;;;;;5034382;28;20456;-75
2022/01/01 05:31:08;;;;;;;19.73;17.20;;;;;;;;;;5034080;28;20446;-76
2022/01/01 05:33:35;;;;;;;18.60;16.20;;;;;;;;;;5033900;28;20495;-77
2022/01/01 05:36:02;;;;;;;18.23;15.90;;;;;;;;;;5034006;28;20463;-76
2022/01/01 05:38:29;;;;;;;22.33;20.00;;;;;;;;;;5033881;28;20446;-75
2022/01/01 05:40:56;;;;;;;20.50;18.40;;;;;;;;;;5033193;28;20450;-76
2022/01/01 05:43:23;;;;;;;21.77;17.97;;;;;;;;;;5033521;28;20474;-76
2022/01/01 05:45:50;;;;;;;23.80;20.00;;;;;;;;;;5033814;28;20459;-76
2022/01/01 05:48:19;;;;;;;25.67;21.90;;;;;;;;;;5033437;28;20817;-76
2022/01/01 05:50:46;;;;;;;27.90;24.97;;;;;;;;;;5033332;28;20444;-77
2022/01/01 05:53:13;;;;;;;32.30;28.80;;;;;;;;;;5033236;28;20435;-76
2022/01/01 05:55:40;;;;;;;30.20;26.60;;;;;;;;;;5033491;28;20529;-76
2022/01/01 05:58:09;;;;;;;32.83;28.43;;;;;;;;;;5033119;28;20856;-77
2022/01/01 06:00:36;;;;;;;30.83;26.63;;;;;;;;;;5033808;28;20461;-76
2022/01/01 06:03:04;;;;;;;32.83;26.37;;;;;;;;;;5033147;28;20490;-77
2022/01/01 06:05:32;;;;;;;32.97;27.90;;;;;;;;;;5033635;28;20455;-76
2022/01/01 06:08:00;;;;;;;32.47;27.83;;;;;;;;;;5033663;28;20490;-76
2022/01/01 06:10:27;;;;;;;32.63;27.17;;;;;;;;;;5033753;28;20505;-76
2022/01/01 06:12:54;;;;;;;29.27;25.17;;;;;;;;;;5033643;28;20447;-76
2022/01/01 06:15:21;;;;;;;30.67;27.47;;;;;;;;;;5033064;28;20443;-76
2022/01/01 06:17:48;;;;;;;30.33;24.87;;;;;;;;;;5032932;28;20446;-77
2022/01/01 06:20:16;;;;;;;31.70;25.20;;;;;;;;;;5033288;28;20446;-77
2022/01/01 06:22:44;;;;;;;30.40;25.43;;;;;;;;;;5032630;28;20827;-76
2022/01/01 06:25:11;;;;;;;30.57;26.50;;;;;;;;;;5033350;28;20497;-76
2022/01/01 06:27:38;;;;;;;29.47;25.30;;;;;;;;;;5033138;28;20443;-76
2022/01/01 06:30:06;;;;;;;26.90;24.10;;;;;;;;;;5033084;28;20493;-76
2022/01/01 06:32:33;;;;;;;25.87;22.60;;;;;;;;;;5032880;28;20448;-76
2022/01/01 06:35:00;;;;;;;25.57;22.80;;;;;;;;;;5032810;28;20451;-76
2022/01/01 06:37:27;;;;;;;25.67;22.90;;;;;;;;;;5033069;28;20470;-76
2022/01/01 06:39:55;;;;;;;27.80;23.67;;;;;;;;;;5032778;28;20455;-76
2022/01/01 06:42:22;;;;;;;25.13;21.50;;;;;;;;;;5032413;28;20481;-76
2022/01/01 06:44:49;;;;;;;27.70;24.10;;;;;;;;;;5032446;28;20460;-77
2022/01/01 06:47:17;;;;;;;25.40;22.70;;;;;;;;;;5032214;28;20899;-76
2022/01/01 06:49:44;;;;;;;25.37;22.37;;;;;;;;;;5032614;28;20875;-76
2022/01/01 06:52:11;;;;;;;17.20;15.50;;;;;;;;;;5031694;28;20447;-77
2022/01/01 06:54:38;;;;;;;16.70;15.00;;;;;;;;;;5032323;28;20473;-76
2022/01/01 06:57:06;;;;;;;19.97;17.77;;;;;;;;;;5032777;28;20466;-76
2022/01/01 06:59:33;;;;;;;23.47;18.70;;;;;;;;;;5032505;28;20443;-76
2022/01/01 07:02:00;;;;;;;20.17;17.07;;;;;;;;;;5032932;28;20447;-76
2022/01/01 07:04:27;;;;;;;23.23;20.00;;;;;;;;;;5032668;28;20864;-76
2022/01/01 07:06:54;;;;;;;26.47;20.37;;;;;;;;;;5032391;28;20462;-76
2022/01/01 07:09:21;;;;;;;26.17;19.70;;;;;;;;;;5032894;28;20443;-77
2022/01/01 07:11:50;;;;;;;14.50;13.03;;;;;;;;;;5032217;28;20502;-75
2022/01/01 07:14:21;;;;;;;13.30;11.90;;;;;;;;;;5031982;28;20587;-76
2022/01/01 07:16:48;;;;;;;19.93;17.50;;;;;;;;;;5032578;28;20473;-76
2022/01/01 07:19:15;;;;;;;13.07;11.40;;;;;;;;;;5034019;28;20533;-77
2022/01/01 07:21:42;;;;;;;12.00;10.57;;;;;;;;;;5033799;28;20451;-77
2022/01/01 07:24:10;;;;;;;18.77;14.50;;;;;;;;;;5042514;28;20482;-76
2022/01/01 07:26:37;;;;;;;8.60;7.70;;;;;;;;;;5054349;28;20532;-77
2022/01/01 07:29:04;;;;;;;7.83;7.13;;;;;;;;;;5053980;28;20470;-77
2022/01/01 07:31:32;;;;;;;13.30;10.37;;;;;;;;;;5042997;28;20449;-76
2022/01/01 07:33:59;;;;;;;15.07;10.77;;;;;;;;;;5034252;28;20435;-77
2022/01/01 07:36:26;;;;;;;12.50;11.27;;;;;;;;;;5033935;28;20470;-76
2022/01/01 07:38:53;;;;;;;16.77;15.07;;;;;;;;;;5034259;28;20469;-76
2022/01/01 07:41:20;;;;;;;15.53;13.57;;;;;;;;;;5033843;28;20450;-77
2022/01/01 07:43:47;;;;;;;19.03;15.80;;;;;;;;;;5033574;28;20479;-76
2022/01/01 07:46:14;;;;;;;17.17;15.47;;;;;;;;;;5032682;28;21013;-77
2022/01/01 07:48:42;;;;;;;19.20;17.07;;;;;;;;;;5034022;28;20497;-75
2022/01/01 07:51:09;;;;;;;16.73;14.47;;;;;;;;;;5033861;28;20998;-76
2022/01/01 07:53:36;;;;;;;17.50;15.70;;;;;;;;;;5034133;28;20438;-76
2022/01/01 07:56:04;;;;;;;18.47;16.47;;;;;;;;;;5035587;28;20463;-76
2022/01/01 07:58:31;;;;;;;17.30;14.60;;;;;;;;;;5034603;28;20951;-77
2022/01/01 08:00:59;;;;;;;16.17;14.20;;;;;;;;;;5034604;28;20559;-77
2022/01/01 08:03:26;;;;;;;15.03;12.67;;;;;;;;;;5035477;28;20474;-76
2022/01/01 08:05:54;;;;;;;14.53;12.27;;;;;;;;;;5039220;28;20498;-75
2022/01/01 08:08:22;;;;;;;15.70;14.10;;;;;;;;;;5042581;28;20425;-76
2022/01/01 08:10:49;;;;;;;17.00;15.30;;;;;;;;;;5057992;28;20446;-77
2022/01/01 08:13:22;;;;;;;15.43;13.73;;;;;;;;;;5057392;28;20443;-77
2022/01/01 08:15:50;;;;;;;14.20;12.80;;;;;;;;;;5057766;28;20463;-75
2022/01/01 08:18:17;;;;;;;16.20;13.20;;;;;;;;;;5057668;28;20439;-76
2022/01/01 08:20:44;;;;;;;15.73;13.97;;;;;;;;;;5056527;28;20426;-76
2022/01/01 08:23:13;;;;;;;14.23;11.50;;;;;;;;;;5036893;28;20497;-76
2022/01/01 08:25:40;;;;;;;12.27;11.03;;;;;;;;;;5036905;28;20470;-77
2022/01/01 08:28:07;;;;;;;11.40;9.60;;;;;;;;;;5043338;28;20512;-75
2022/01/01 08:30:35;;;;;;;7.43;6.50;;;;;;;;;;5046794;28;20442;-78
2022/01/01 08:33:02;;;;;;;31.50;28.10;;;;;;;;;;5036755;28;20530;-77
2022/01/01 08:35:30;;;;;;;21.37;19.00;;;;;;;;;;5036355;28;20478;-76
2022/01/01 08:37:57;;;;;;;20.10;16.90;;;;;;;;;;5036405;28;20493;-75
2022/01/01 08:40:25;;;;;;;8.40;7.60;;;;;;;;;;5038739;28;20443;-76
2022/01/01 08:42:53;;;;;;;10.97;9.83;;;;;;;;;;5037456;28;20505;-76
2022/01/01 08:45:20;;;;;;;8.10;7.30;;;;;;;;;;5038509;28;20655;-78
2022/01/01 08:47:47;;;;;;;8.50;7.70;;;;;;;;;;5037846;28;20459;-77
2022/01/01 08:50:15;;;;;;;5.77;5.23;;;;;;;;;;5037600;28;20443;-76
2022/01/01 08:52:42;;;;;;;7.10;6.40;;;;;;;;;;5038169;28;20439;-76
2022/01/01 08:55:09;;;;;;;6.20;5.67;;;;;;;;;;5048926;28;20450;-76
2022/01/01 08:57:38;;;;;;;5.97;5.47;;;;;;;;;;5057594;28;20445;-77
2022/01/01 09:00:07;;;;;;;6.77;6.07;;;;;;;;;;5056274;28;20534;-77
2022/01/01 09:02:34;;;;;;;5.57;5.07;;;;;;;;;;5056106;28;20525;-76
2022/01/01 09:05:01;;;;;;;5.77;5.27;;;;;;;;;;5056767;28;20537;-77
2022/01/01 09:07:29;;;;;;;5.97;5.37;;;;;;;;;;5055932;28;20472;-76
2022/01/01 09:09:58;;;;;;;8.23;6.57;;;;;;;;;;5056520;28;20462;-78
2022/01/01 09:12:26;;;;;;;7.77;6.97;;;;;;;;;;5055907;28;20491;-77
2022/01/01 09:14:54;;;;;;;7.80;7.00;;;;;;;;;;5054107;28;20435;-77
2022/01/01 09:17:21;;;;;;;6.07;5.50;;;;;;;;;;5055258;28;20549;-76
2022/01/01 09:19:50;;;;;;;5.90;5.40;;;;;;;;;;5054780;28;20443;-79
2022/01/01 09:22:17;;;;;;;5.17;4.30;;;;;;;;;;5054145;28;20450;-77
2022/01/01 09:24:44;;;;;;;5.20;4.70;;;;;;;;;;5054320;28;20784;-77
2022/01/01 09:27:11;;;;;;;4.90;4.50;;;;;;;;;;5054028;28;20518;-77
2022/01/01 09:29:38;;;;;;;6.67;6.07;;;;;;;;;;5053983;28;20453;-77
2022/01/01 09:32:06;;;;;;;5.20;4.70;;;;;;;;;;5055367;28;20441;-77
2022/01/01 09:34:34;;;;;;;4.40;4.00;;;;;;;;;;5053403;28;20437;-76
2022/01/01 09:37:01;;;;;;;4.13;3.80;;;;;;;;;;5053727;28;20915;-78
2022/01/01 09:39:28;;;;;;;4.63;4.23;;;;;;;;;;5053231;28;21006;-77
2022/01/01 09:41:55;;;;;;;4.93;4.50;;;;;;;;;;5047292;28;20497;-77
2022/01/01 09:44:22;;;;;;;8.00;7.20;;;;;;;;;;5042980;28;20477;-77
2022/01/01 09:46:50;;;;;;;9.43;6.87;;;;;;;;;;5054750;28;20477;-77
2022/01/01 09:49:18;;;;;;;7.93;7.00;;;;;;;;;;5053638;28;20549;-77
2022/01/01 09:51:46;;;;;;;7.83;7.13;;;;;;;;;;5053492;28;20539;-76
2022/01/01 09:54:14;;;;;;;8.57;7.83;;;;;;;;;;5053540;28;20582;-77
2022/01/01 09:56:41;;;;;;;11.03;10.03;;;;;;;;;;5053487;28;20465;-77
2022/01/01 09:59:08;;;;;;;10.90;9.90;;;;;;;;;;5053154;28;20442;-77
2022/01/01 10:01:35;;;;;;;10.50;9.47;;;;;;;;;;5053013;28;20969;-76
2022/01/01 10:04:02;;;;;;;11.10;10.00;;;;;;;;;;5054652;28;20484;-77
2022/01/01 10:06:32;;;;;;;9.20;8.30;;;;;;;;;;5056231;28;20527;-76
2022/01/01 10:09:00;;;;;;;10.37;9.37;;;;;;;;;;5054974;28;21086;-77
2022/01/01 10:11:28;;;;;;;9.80;8.80;;;;;;;;;;5055691;28;20446;-77
2022/01/01 10:13:55;;;;;;;10.33;9.40;;;;;;;;;;5055755;28;20441;-77
2022/01/01 10:16:22;;;;;;;11.17;10.17;;;;;;;;;;5054522;28;20981;-77
2022/01/01 10:18:50;;;;;;;10.87;9.77;;;;;;;;;;5055438;28;20449;-76
2022/01/01 10:21:18;;;;;;;10.43;9.40;;;;;;;;;;5055260;28;20438;-76
2022/01/01 10:23:49;;;;;;;11.00;9.90;;;;;;;;;;5054866;28;20474;-77
2022/01/01 10:29:08;;;;;;;10.73;9.60;;;;;;;;;;5054462;28;20911;-77
2022/01/01 10:31:35;;;;;;;10.10;9.20;;;;;;;;;;5055002;28;20437;-77
2022/01/01 10:34:02;;;;;;;10.93;9.83;;;;;;;;;;5054973;28;20442;-76
2022/01/01 10:36:31;;;;;;;9.47;8.57;;;;;;;;;;5054968;28;20466;-77
2022/01/01 10:39:09;;;;;;;10.23;9.23;;;;;;;;;;5054201;28;20480;-78
2022/01/01 10:41:44;;;;;;;8.70;7.90;;;;;;;;;;5054147;28;20430;-77
2022/01/01 10:44:12;;;;;;;9.70;8.80;;;;;;;;;;5053742;28;20542;-77
2022/01/01 10:46:39;;;;;;;9.47;8.20;;;;;;;;;;5052991;28;20469;-77
2022/01/01 10:49:29;;;;;;;8.30;7.60;;;;;;;;;;5053328;28;20450;-76
2022/01/01 10:51:57;;;;;;;9.50;8.60;;;;;;;;;;5052975;28;20441;-77
2022/01/01 10:54:27;;;;;;;8.50;7.77;;;;;;;;;;5052985;28;20430;-76
2022/01/01 10:56:56;;;;;;;8.50;7.67;;;;;;;;;;5052508;28;20454;-76
2022/01/01 10:59:30;;;;;;;8.10;7.40;;;;;;;;;;5052382;28;20480;-76
2022/01/01 11:01:58;;;;;;;8.90;8.00;;;;;;;;;;5049391;28;20954;-76
2022/01/01 11:04:25;;;;;;;11.37;10.27;;;;;;;;;;5052116;28;20520;-76
2022/01/01 11:06:52;;;;;;;8.93;8.13;;;;;;;;;;5052366;28;20465;-76
2022/01/01 11:09:19;;;;;;;9.23;8.23;;;;;;;;;;5052398;28;20446;-76
2022/01/01 11:11:48;;;;;;;10.87;9.80;;;;;;;;;;5052571;28;20442;-77
2022/01/01 11:14:16;;;;;;;10.33;9.33;;;;;;;;;;5053081;28;20446;-76
2022/01/01 11:16:44;;;;;;;10.77;9.77;;;;;;;;;;5052581;28;20516;-76
2022/01/01 11:19:12;;;;;;;11.13;10.03;;;;;;;;;;5053052;28;20540;-76
2022/01/01 11:21:39;;;;;;;11.67;10.53;;;;;;;;;;5052558;28;20442;-77
2022/01/01 11:24:07;;;;;;;13.20;9.83;;;;;;;;;;5053430;28;20469;-76
2022/01/01 11:26:34;;;;;;;12.83;10.83;;;;;;;;;;5052396;28;20462;-75
2022/01/01 11:29:03;;;;;;;11.30;10.10;;;;;;;;;;5051977;28;21006;-77
2022/01/01 11:31:30;;;;;;;10.07;9.17;;;;;;;;;;5051745;28;20504;-78
2022/01/01 11:34:00;;;;;;;11.63;10.50;;;;;;;;;;5051992;28;20437;-76
2022/01/01 11:36:31;;;;;;;11.10;10.10;;;;;;;;;;5052271;28;20974;-76
2022/01/01 11:38:59;;;;;;;11.43;10.27;;;;;;;;;;5052793;28;20450;-77
2022/01/01 11:41:38;;;;;;;11.27;10.17;;;;;;;;;;5050343;28;20442;-77
2022/01/01 11:44:26;;;;;;;9.77;8.77;;;;;;;;;;5051563;28;20816;-77
2022/01/01 11:46:57;;;;;;;10.40;9.40;;;;;;;;;;5051573;28;20476;-76
2022/01/01 11:49:28;;;;;;;10.47;9.57;;;;;;;;;;5051508;28;20434;-76
2022/01/01 11:51:56;;;;;;;11.63;10.43;;;;;;;;;;5048092;28;20437;-75
2022/01/01 11:54:25;;;;;;;11.37;10.27;;;;;;;;;;5031634;28;20952;-76
2022/01/01 11:56:58;;;;;;;11.87;10.67;;;;;;;;;;5032363;28;20903;-78
2022/01/01 11:59:27;;;;;;;11.60;10.47;;;;;;;;;;5032291;28;20450;-76
2022/01/01 12:01:55;;;;;;;11.90;10.70;;;;;;;;;;5032848;28;20445;-77
2022/01/01 12:04:25;;;;;;;11.47;10.43;;;;;;;;;;5051552;28;20477;-78
2022/01/01 12:06:55;;;;;;;11.27;10.20;;;;;;;;;;5049150;28;20466;-77
2022/01/01 12:09:24;;;;;;;10.90;9.90;;;;;;;;;;5052022;28;20492;-77
2022/01/01 12:11:55;;;;;;;11.30;10.20;;;;;;;;;;5051935;28;20442;-77
2022/01/01 12:14:24;;;;;;;13.90;11.10;;;;;;;;;;5051745;28;20434;-77
2022/01/01 12:16:53;;;;;;;11.70;10.47;;;;;;;;;;5051169;28;20549;-77
2022/01/01 12:19:21;;;;;;;11.50;10.40;;;;;;;;;;5038852;28;20853;-77
2022/01/01 12:21:48;;;;;;;12.33;10.73;;;;;;;;;;5050185;28;20462;-77
2022/01/01 12:24:19;;;;;;;15.10;10.47;;;;;;;;;;5044528;28;20580;-76
2022/01/01 12:26:51;;;;;;;11.47;10.37;;;;;;;;;;5031234;28;20474;-77
2022/01/01 12:29:23;;;;;;;12.17;11.00;;;;;;;;;;5031594;28;20806;-78
2022/01/01 12:31:58;;;;;;;10.87;9.77;;;;;;;;;;5031400;28;20434;-76
2022/01/01 12:34:25;;;;;;;11.97;10.77;;;;;;;;;;5031546;28;20512;-77
2022/01/01 12:36:53;;;;;;;11.43;10.43;;;;;;;;;;5031478;28;20462;-77
2022/01/01 12:39:20;;;;;;;13.17;10.17;;;;;;;;;;5031330;28;20431;-78
2022/01/01 12:41:47;;;;;;;11.57;10.30;;;;;;;;;;5031710;28;20445;-78
2022/01/01 12:44:18;;;;;;;12.80;10.17;;;;;;;;;;5031271;28;20517;-78
2022/01/01 12:46:47;;;;;;;11.20;10.10;;;;;;;;;;5030986;28;20474;-78
2022/01/01 12:49:15;;;;;;;11.20;10.20;;;;;;;;;;5030927;28;20817;-77
2022/01/01 12:51:42;;;;;;;10.93;9.40;;;;;;;;;;5034442;28;20520;-77
2022/01/01 12:54:11;;;;;;;10.97;9.97;;;;;;;;;;5035315;28;20449;-80
2022/01/01 12:56:39;;;;;;;11.40;9.67;;;;;;;;;;5034838;28;20483;-77
2022/01/01 12:59:09;;;;;;;10.80;9.77;;;;;;;;;;5034526;28;20450;-77
2022/01/01 13:01:37;;;;;;;11.07;9.60;;;;;;;;;;5034595;28;20794;-77
2022/01/01 13:04:07;;;;;;;10.90;9.07;;;;;;;;;;5052304;28;20446;-77
2022/01/01 13:06:37;;;;;;;10.53;9.53;;;;;;;;;;5054254;28;20477;-77
2022/01/01 13:09:05;;;;;;;9.90;8.63;;;;;;;;;;5054338;28;20460;-76
2022/01/01 13:11:33;;;;;;;10.07;9.07;;;;;;;;;;5052798;28;20932;-78
2022/01/01 13:14:00;;;;;;;9.73;8.83;;;;;;;;;;5052246;28;20434;-77
2022/01/01 13:16:28;;;;;;;10.70;9.70;;;;;;;;;;5053326;28;21050;-77
2022/01/01 13:18:55;;;;;;;10.20;9.30;;;;;;;;;;5054158;28;20442;-78
2022/01/01 13:21:23;;;;;;;9.90;8.70;;;;;;;;;;5054044;28;20449;-77
2022/01/01 13:23:51;;;;;;;10.27;8.30;;;;;;;;;;5054346;28;20446;-78
2022/01/01 13:26:19;;;;;;;10.70;9.13;;;;;;;;;;5056742;28;20904;-79
2022/01/01 13:28:46;;;;;;;10.30;9.20;;;;;;;;;;5057092;28;20523;-78
2022/01/01 13:31:14;;;;;;;10.97;9.20;;;;;;;;;;5057691;28;20453;-78
2022/01/01 13:33:41;;;;;;;9.30;8.40;;;;;;;;;;5053680;28;20448;-77
2022/01/01 13:36:08;;;;;;;9.77;8.50;;;;;;;;;;5053959;28;20466;-78
2022/01/01 13:38:36;;;;;;;9.90;8.90;;;;;;;;;;5053399;28;20446;-77
2022/01/01 13:41:05;;;;;;;9.77;8.47;;;;;;;;;;5053330;28;20446;-77
2022/01/01 13:43:34;;;;;;;9.27;8.27;;;;;;;;;;5053226;28;20499;-77
2022/01/01 13:46:07;;;;;;;8.97;8.07;;;;;;;;;;5053549;28;20486;-77
2022/01/01 13:48:42;;;;;;;8.10;7.30;;;;;;;;;;5053482;28;20442;-77
2022/01/01 13:51:09;;;;;;;8.33;7.50;;;;;;;;;;5053270;28;20957;-78
2022/01/01 13:53:36;;;;;;;7.90;7.10;;;;;;;;;;5052806;28;20476;-77
2022/01/01 13:56:08;;;;;;;8.53;7.67;;;;;;;;;;5053073;28;20466;-78
2022/01/01 13:58:39;;;;;;;7.53;6.60;;;;;;;;;;5053306;28;20454;-77
2022/01/01 14:01:06;;;;;;;8.00;7.20;;;;;;;;;;5052942;28;20453;-78
2022/01/01 14:03:33;;;;;;;8.33;7.50;;;;;;;;;;5053154;28;20587;-77
2022/01/01 14:06:00;;;;;;;7.73;7.03;;;;;;;;;;5053011;28;20485;-78
2022/01/01 14:08:28;;;;;;;7.27;6.60;;;;;;;;;;5052879;28;20468;-77
2022/01/01 14:10:56;;;;;;;8.07;7.27;;;;;;;;;;5053269;28;20550;-77
2022/01/01 14:13:35;;;;;;;8.10;7.30;;;;;;;;;;5053069;28;20446;-77
2022/01/01 14:16:03;;;;;;;8.03;7.23;;;;;;;;;;5052841;28;20539;-77
2022/01/01 14:18:31;;;;;;;7.23;6.63;;;;;;;;;;5053111;28;20438;-77
2022/01/01 14:20:58;;;;;;;7.67;6.90;;;;;;;;;;5052718;28;20446;-78
2022/01/01 14:23:26;;;;;;;8.83;7.53;;;;;;;;;;5052679;28;20466;-78
2022/01/01 14:25:57;;;;;;;7.70;6.87;;;;;;;;;;5052308;28;21007;-78
2022/01/01 14:28:25;;;;;;;7.33;6.43;;;;;;;;;;5052829;28;20635;-77
2022/01/01 14:30:54;;;;;;;7.43;6.80;;;;;;;;;;5052865;28;20445;-78